createdAt,value
2022-12-11T00:00:23.773Z,2.30
2022-12-11T00:02:51.111Z,2.28
2022-12-11T00:05:18.137Z,2.45
2022-12-11T00:07:45.184Z,2.46
2022-12-11T00:10:12.212Z,2.37
2022-12-11T00:12:39.995Z,2.28
2022-12-11T00:15:07.894Z,2.32
2022-12-11T00:17:35.491Z,2.57
2022-12-11T00:20:02.557Z,2.63
2022-12-11T00:22:30.982Z,2.43
2022-12-11T00:24:57.921Z,2.49
2022-12-11T00:27:25.450Z,2.40
2022-12-11T00:29:52.476Z,2.50
2022-12-11T00:32:19.702Z,2.45
2022-12-11T00:34:46.686Z,2.47
2022-12-11T00:37:13.792Z,2.60
2022-12-11T00:39:40.830Z,2.60
2022-12-11T00:42:08.842Z,2.55
2022-12-11T00:44:35.986Z,2.55
2022-12-11T00:47:03.549Z,2.62
2022-12-11T00:49:30.628Z,2.73
2022-12-11T00:51:57.685Z,2.78
2022-12-11T00:54:24.751Z,2.74
2022-12-11T00:56:51.889Z,2.65
2022-12-11T00:59:20.126Z,2.31
2022-12-11T01:01:47.229Z,2.15
2022-12-11T01:04:14.328Z,2.06
2022-12-11T01:06:41.294Z,1.84
2022-12-11T01:09:26.885Z,1.88
2022-12-11T01:11:54.020Z,1.94
2022-12-11T01:14:21.048Z,2.15
2022-12-11T01:16:48.121Z,2.28
2022-12-11T01:19:15.456Z,2.18
2022-12-11T01:21:42.441Z,2.26
2022-12-11T01:24:09.411Z,2.12
2022-12-11T01:26:36.436Z,2.06
2022-12-11T01:29:03.901Z,2.18
2022-12-11T01:31:31.175Z,2.18
2022-12-11T01:33:58.183Z,2.23
2022-12-11T01:36:25.260Z,2.00
2022-12-11T01:38:54.417Z,1.97
2022-12-11T01:41:22.060Z,2.09
2022-12-11T01:44:15.409Z,2.27
2022-12-11T01:46:43.320Z,2.27
2022-12-11T01:49:13.133Z,2.40
2022-12-11T01:51:45.342Z,2.34
2022-12-11T01:54:15.100Z,2.34
2022-12-11T01:56:45.213Z,2.20
2022-12-11T01:59:15.742Z,2.23
2022-12-11T02:01:51.306Z,2.17
2022-12-11T02:04:19.936Z,2.12
2022-12-11T02:06:49.501Z,2.08
2022-12-11T02:09:24.351Z,2.12
2022-12-11T02:12:23.272Z,2.32
2022-12-11T02:14:56.549Z,2.24
2022-12-11T02:17:29.779Z,2.40
2022-12-11T02:20:12.275Z,2.54
2022-12-11T02:23:13.055Z,2.59
2022-12-11T02:25:57.608Z,2.55
2022-12-11T02:28:42.583Z,2.50
2022-12-11T02:31:49.687Z,2.04
2022-12-11T02:34:43.459Z,1.99
2022-12-11T02:37:19.228Z,1.80
2022-12-11T02:39:49.656Z,1.90
2022-12-11T02:42:18.462Z,2.06
2022-12-11T02:44:53.212Z,2.10
2022-12-11T02:47:21.556Z,2.14
2022-12-11T02:49:50.479Z,2.22
2022-12-11T02:52:21.852Z,2.04
2022-12-11T02:54:52.411Z,1.81
2022-12-11T02:57:36.130Z,1.75
2022-12-11T03:00:04.447Z,1.73
2022-12-11T03:02:31.710Z,1.66
2022-12-11T03:04:59.781Z,1.73
2022-12-11T03:07:31.778Z,1.58
2022-12-11T03:09:58.863Z,1.63
2022-12-11T03:12:29.719Z,1.77
2022-12-11T03:15:00.852Z,1.75
2022-12-11T03:17:35.631Z,1.78
2022-12-11T03:20:30.551Z,2.02
2022-12-11T03:23:18.820Z,1.86
2022-12-11T03:25:59.731Z,1.91
2022-12-11T03:28:34.010Z,2.14
2022-12-11T03:31:09.082Z,1.93
2022-12-11T03:33:47.761Z,1.74
2022-12-11T03:36:26.132Z,1.45
2022-12-11T03:39:15.484Z,1.42
2022-12-11T03:41:45.593Z,1.45
2022-12-11T03:44:13.823Z,1.44
2022-12-11T03:46:43.633Z,1.49
2022-12-11T03:49:17.946Z,1.43
2022-12-11T03:51:48.459Z,1.59
2022-12-11T03:54:16.587Z,1.60
2022-12-11T03:56:45.881Z,1.51
2022-12-11T03:59:13.068Z,1.32
2022-12-11T04:01:40.145Z,1.53
2022-12-11T04:04:07.210Z,1.44
2022-12-11T04:06:34.225Z,1.40
2022-12-11T04:09:01.266Z,1.36
2022-12-11T04:11:37.201Z,1.26
2022-12-11T04:14:28.416Z,1.12
2022-12-11T04:16:55.866Z,1.19
2022-12-11T04:19:42.579Z,1.15
2022-12-11T04:22:32.232Z,1.11
2022-12-11T04:25:00.024Z,1.11
2022-12-11T04:27:46.114Z,1.19
2022-12-11T04:30:16.342Z,0.97
2022-12-11T04:32:43.434Z,0.92
2022-12-11T04:35:12.059Z,1.07
2022-12-11T04:37:39.595Z,1.36
2022-12-11T04:40:09.683Z,1.29
2022-12-11T04:42:36.708Z,1.45
2022-12-11T04:45:05.423Z,1.52
2022-12-11T04:47:32.419Z,1.18
2022-12-11T04:49:59.359Z,1.27
2022-12-11T04:52:26.325Z,1.45
2022-12-11T04:54:53.267Z,1.43
2022-12-11T04:57:21.685Z,1.30
2022-12-11T04:59:49.067Z,1.05
2022-12-11T05:02:16.813Z,1.13
2022-12-11T05:04:43.777Z,1.07
2022-12-11T05:07:10.750Z,1.26
2022-12-11T05:09:37.727Z,1.34
2022-12-11T05:12:04.800Z,1.16
2022-12-11T05:14:32.600Z,1.10
2022-12-11T05:16:59.985Z,1.02
2022-12-11T05:19:30.580Z,0.98
2022-12-11T05:21:57.591Z,0.93
2022-12-11T05:24:34.100Z,0.96
2022-12-11T05:27:03.861Z,0.95
2022-12-11T05:29:30.852Z,0.91
2022-12-11T05:32:07.952Z,0.94
2022-12-11T05:34:34.984Z,0.80
2022-12-11T05:37:02.320Z,0.79
2022-12-11T05:39:39.148Z,0.87
2022-12-11T05:42:08.828Z,0.88
2022-12-11T05:44:38.230Z,0.89
2022-12-11T05:47:05.203Z,0.99
2022-12-11T05:49:32.243Z,1.05
2022-12-11T05:51:59.237Z,1.07
2022-12-11T05:54:26.265Z,0.96
2022-12-11T05:56:53.445Z,1.11
2022-12-11T05:59:20.529Z,1.35
2022-12-11T06:01:47.689Z,1.40
2022-12-11T06:04:14.793Z,1.33
2022-12-11T06:06:43.890Z,1.18
2022-12-11T06:09:16.671Z,1.08
2022-12-11T06:11:43.752Z,1.24
2022-12-11T06:14:11.673Z,1.41
2022-12-11T06:16:38.907Z,1.38
2022-12-11T06:19:05.972Z,1.19
2022-12-11T06:21:33.997Z,1.22
2022-12-11T06:24:03.622Z,1.17
2022-12-11T06:26:32.215Z,1.15
2022-12-11T06:28:59.879Z,1.24
2022-12-11T06:31:27.215Z,0.91
2022-12-11T06:33:54.733Z,1.09
2022-12-11T06:36:23.378Z,1.00
2022-12-11T06:38:50.627Z,1.03
2022-12-11T06:41:17.857Z,1.16
2022-12-11T06:43:45.138Z,1.22
2022-12-11T06:46:15.244Z,1.00
2022-12-11T06:48:42.820Z,0.66
2022-12-11T06:51:12.893Z,0.84
2022-12-11T06:53:40.365Z,1.03
2022-12-11T06:56:10.803Z,0.88
2022-12-11T06:58:38.969Z,0.89
2022-12-11T07:01:16.337Z,0.79
2022-12-11T07:03:43.793Z,0.76
2022-12-11T07:06:15.917Z,0.78
2022-12-11T07:08:43.837Z,0.82
2022-12-11T07:11:14.226Z,0.94
2022-12-11T07:13:42.324Z,0.90
2022-12-11T07:16:11.435Z,0.79
2022-12-11T07:18:40.692Z,0.87
2022-12-11T07:21:08.564Z,0.82
2022-12-11T07:23:36.020Z,0.80
2022-12-11T07:26:08.148Z,0.86
2022-12-11T07:28:35.756Z,0.94
2022-12-11T07:31:11.339Z,0.81
2022-12-11T07:33:38.497Z,0.75
2022-12-11T07:36:08.280Z,0.77
2022-12-11T07:38:35.283Z,0.97
2022-12-11T07:41:03.300Z,1.00
2022-12-11T07:43:30.278Z,0.95
2022-12-11T07:46:08.487Z,0.93
2022-12-11T07:48:37.931Z,0.95
2022-12-11T07:51:15.138Z,1.02
2022-12-11T07:53:49.238Z,1.48
2022-12-11T07:56:17.753Z,1.58
2022-12-11T07:58:45.447Z,1.26
2022-12-11T08:01:33.569Z,1.38
2022-12-11T08:04:00.808Z,1.21
2022-12-11T08:06:30.484Z,1.35
2022-12-11T08:08:59.319Z,1.30
2022-12-11T08:11:26.870Z,1.05
2022-12-11T08:13:54.708Z,0.98
2022-12-11T08:16:22.351Z,0.83
2022-12-11T08:18:49.449Z,1.07
2022-12-11T08:21:21.196Z,1.41
2022-12-11T08:23:49.286Z,1.60
2022-12-11T08:26:22.512Z,1.51
2022-12-11T08:28:49.529Z,1.19
2022-12-11T08:31:18.011Z,1.38
2022-12-11T08:33:50.780Z,1.57
2022-12-11T08:36:24.011Z,1.46
2022-12-11T08:38:52.215Z,1.41
2022-12-11T08:41:21.970Z,1.52
2022-12-11T08:43:49.642Z,1.39
2022-12-11T08:46:16.774Z,1.24
2022-12-11T08:48:44.218Z,1.20
2022-12-11T08:51:13.722Z,1.33
2022-12-11T08:53:41.146Z,1.43
2022-12-11T08:56:11.043Z,1.40
2022-12-11T08:58:38.691Z,1.43
2022-12-11T09:01:10.966Z,1.59
2022-12-11T09:03:38.686Z,1.63
2022-12-11T09:06:16.706Z,1.68
2022-12-11T09:08:51.691Z,1.61
2022-12-11T09:11:23.029Z,1.77
2022-12-11T09:13:50.738Z,1.86
2022-12-11T09:16:20.526Z,1.70
2022-12-11T09:18:49.215Z,1.76
2022-12-11T09:21:19.391Z,1.66
2022-12-11T09:23:46.861Z,1.84
2022-12-11T09:26:17.407Z,1.87
2022-12-11T09:28:46.921Z,1.95
2022-12-11T09:31:17.488Z,2.02
2022-12-11T09:33:45.576Z,2.01
2022-12-11T09:36:12.800Z,1.97
2022-12-11T09:38:40.058Z,1.63
2022-12-11T09:41:22.141Z,1.58
2022-12-11T09:44:12.132Z,1.53
2022-12-11T09:46:41.054Z,1.50
2022-12-11T09:49:22.220Z,1.39
2022-12-11T09:52:17.460Z,1.33
2022-12-11T09:54:52.777Z,1.55
2022-12-11T09:57:19.697Z,1.80
2022-12-11T10:00:14.014Z,1.67
2022-12-11T10:03:07.335Z,1.51
2022-12-11T10:06:04.851Z,1.67
2022-12-11T10:08:54.891Z,1.28
2022-12-11T10:11:58.658Z,1.40
2022-12-11T10:14:39.989Z,1.27
2022-12-11T10:17:16.144Z,1.29
2022-12-11T10:19:43.452Z,1.49
2022-12-11T10:22:23.212Z,1.16
2022-12-11T10:25:15.540Z,1.20
2022-12-11T10:27:43.606Z,1.09
2022-12-11T10:30:16.184Z,1.25
2022-12-11T10:32:43.129Z,1.41
2022-12-11T10:35:18.633Z,1.40
2022-12-11T10:37:45.693Z,1.45
2022-12-11T10:40:13.480Z,1.58
2022-12-11T10:42:45.544Z,1.65
2022-12-11T10:45:16.285Z,1.46
2022-12-11T10:47:43.295Z,1.36
2022-12-11T10:50:24.277Z,1.47
2022-12-11T10:52:52.803Z,1.60
2022-12-11T10:55:29.363Z,1.57
2022-12-11T10:58:05.514Z,1.31
2022-12-11T11:01:18.630Z,1.34
2022-12-11T11:04:19.217Z,1.25
2022-12-11T11:06:46.813Z,1.23
2022-12-11T11:09:36.509Z,1.38
2022-12-11T11:12:07.902Z,1.26
2022-12-11T11:14:35.281Z,1.26
2022-12-11T11:17:02.335Z,1.34
2022-12-11T11:19:35.157Z,1.12
2022-12-11T11:22:14.307Z,0.82
2022-12-11T11:24:57.096Z,1.06
2022-12-11T11:27:37.469Z,1.27
2022-12-11T11:30:18.732Z,1.21
2022-12-11T11:32:46.087Z,1.58
2022-12-11T11:35:13.412Z,1.63
2022-12-11T11:37:44.672Z,1.60
2022-12-11T11:40:25.752Z,1.03
2022-12-11T11:42:59.126Z,1.20
2022-12-11T11:45:40.867Z,1.08
2022-12-11T11:48:29.084Z,1.11
2022-12-11T11:50:58.115Z,0.98
2022-12-11T11:53:37.383Z,0.97
2022-12-11T11:56:26.333Z,1.13
2022-12-11T11:58:56.459Z,1.06
2022-12-11T12:01:24.262Z,0.81
2022-12-11T12:03:52.540Z,0.79
2022-12-11T12:06:37.253Z,0.99
2022-12-11T12:09:08.958Z,0.89
2022-12-11T12:11:57.942Z,0.80
2022-12-11T12:14:52.443Z,0.83
2022-12-11T12:17:44.761Z,0.72
2022-12-11T12:20:46.932Z,0.72
2022-12-11T12:23:22.788Z,0.66
2022-12-11T12:26:09.211Z,0.46
2022-12-11T12:28:45.504Z,0.23
2022-12-11T12:31:18.595Z,0.34
2022-12-11T12:34:04.173Z,0.34
2022-12-11T12:36:43.916Z,0.34
2022-12-11T12:39:16.830Z,0.14
2022-12-11T12:42:07.525Z,0.50
2022-12-11T12:44:42.593Z,0.32
2022-12-11T12:47:15.382Z,0.43
2022-12-11T12:49:46.565Z,0.46
2022-12-11T12:52:25.447Z,0.34
2022-12-11T12:55:16.590Z,0.30
2022-12-11T12:57:48.533Z,0.35
2022-12-11T13:00:31.603Z,0.01
2022-12-11T13:03:01.920Z,0.03
2022-12-11T13:05:34.572Z,0.31
2022-12-11T13:08:04.640Z,0.23
2022-12-11T13:10:36.915Z,0.14
2022-12-11T13:13:06.269Z,0.62
2022-12-11T13:15:43.986Z,0.60
2022-12-11T13:18:34.160Z,0.35
2022-12-11T13:21:02.916Z,0.38
2022-12-11T13:23:35.046Z,0.61
2022-12-11T13:26:04.572Z,0.68
2022-12-11T13:28:43.477Z,0.68
2022-12-11T13:31:16.530Z,0.56
2022-12-11T13:33:50.978Z,0.74
2022-12-11T13:36:22.912Z,0.80
2022-12-11T13:38:56.728Z,0.40
2022-12-11T13:41:24.149Z,0.46
2022-12-11T13:43:52.464Z,0.38
2022-12-11T13:46:31.346Z,0.49
2022-12-11T13:49:02.314Z,0.49
2022-12-11T13:51:32.170Z,0.42
2022-12-11T13:54:21.662Z,0.37
2022-12-11T13:56:59.122Z,0.63
2022-12-11T13:59:35.254Z,0.38
2022-12-11T14:02:29.679Z,0.24
2022-12-11T14:05:00.340Z,0.43
2022-12-11T14:07:33.362Z,0.46
2022-12-11T14:10:09.844Z,0.29
2022-12-11T14:12:37.517Z,0.71
2022-12-11T14:15:05.484Z,0.71
2022-12-11T14:17:35.480Z,0.67
2022-12-11T14:20:07.472Z,0.23
2022-12-11T14:22:34.594Z,0.18
2022-12-11T14:25:03.792Z,0.43
2022-12-11T14:27:31.523Z,0.39
2022-12-11T14:29:58.514Z,0.55
2022-12-11T14:32:35.240Z,0.38
2022-12-11T14:35:05.974Z,0.46
2022-12-11T14:37:36.610Z,0.55
2022-12-11T14:40:07.319Z,0.36
2022-12-11T14:42:40.310Z,0.59
2022-12-11T14:45:21.974Z,0.28
2022-12-11T14:47:51.729Z,0.02
2022-12-11T14:50:23.668Z,0.27
2022-12-11T14:52:59.792Z,0.15
2022-12-11T14:55:30.880Z,0.29
2022-12-11T14:57:59.186Z,0.37
2022-12-11T15:00:33.220Z,0.14
2022-12-11T15:03:05.731Z,0.20
2022-12-11T15:05:40.327Z,0.36
2022-12-11T15:08:10.942Z,0.59
2022-12-11T15:10:41.742Z,0.59
2022-12-11T15:13:10.204Z,0.44
2022-12-11T15:15:47.849Z,0.49
2022-12-11T15:18:51.076Z,0.28
2022-12-11T15:21:19.320Z,0.17
2022-12-11T15:23:55.824Z,-0.06
2022-12-11T15:26:40.100Z,0.47
2022-12-11T15:29:32.599Z,0.42
2022-12-11T15:32:18.627Z,0.36
2022-12-11T15:34:48.841Z,0.28
2022-12-11T15:37:24.678Z,0.34
2022-12-11T15:39:53.816Z,0.35
2022-12-11T15:42:41.923Z,0.50
2022-12-11T15:45:16.784Z,0.07
2022-12-11T15:47:44.738Z,0.10
2022-12-11T15:50:19.811Z,-0.05
2022-12-11T15:52:47.023Z,-0.18
2022-12-11T15:55:14.898Z,-0.24
2022-12-11T15:57:46.959Z,0.08
2022-12-11T16:00:14.761Z,0.17
2022-12-11T16:02:41.817Z,0.23
2022-12-11T16:05:09.776Z,0.15
2022-12-11T16:07:37.021Z,0.10
2022-12-11T16:10:04.948Z,-0.14
2022-12-11T16:12:32.559Z,-0.07
2022-12-11T16:14:59.624Z,-0.02
2022-12-11T16:17:26.884Z,0.01
2022-12-11T16:19:54.283Z,0.18
2022-12-11T16:22:21.260Z,0.18
2022-12-11T16:24:48.289Z,-0.04
2022-12-11T16:27:22.949Z,-0.02
2022-12-11T16:29:51.201Z,-0.36
2022-12-11T16:32:20.235Z,-0.06
2022-12-11T16:34:47.312Z,-0.04
2022-12-11T16:37:14.483Z,0.00
2022-12-11T16:39:42.997Z,0.05
2022-12-11T16:42:10.024Z,0.07
2022-12-11T16:44:42.391Z,0.24
2022-12-11T16:47:10.885Z,0.40
2022-12-11T16:49:38.128Z,0.11
2022-12-11T16:52:05.235Z,-0.05
2022-12-11T16:54:32.241Z,0.11
2022-12-11T16:56:59.248Z,-0.06
2022-12-11T16:59:26.348Z,0.00
2022-12-11T17:01:53.453Z,0.15
2022-12-11T17:04:20.456Z,0.16
2022-12-11T17:06:47.521Z,0.06
2022-12-11T17:09:14.489Z,0.23
2022-12-11T17:11:41.489Z,0.05
2022-12-11T17:14:10.139Z,0.09
2022-12-11T17:16:37.140Z,0.26
2022-12-11T17:19:07.325Z,0.17
2022-12-11T17:21:34.400Z,0.19
2022-12-11T17:24:01.500Z,0.04
2022-12-11T17:26:29.296Z,0.12
2022-12-11T17:28:59.565Z,0.08
2022-12-11T17:31:27.462Z,0.10
2022-12-11T17:33:54.546Z,-0.04
2022-12-11T17:36:40.301Z,0.11
2022-12-11T17:39:07.296Z,0.07
2022-12-11T17:41:34.255Z,0.00
2022-12-11T17:44:01.300Z,0.08
2022-12-11T17:46:28.319Z,-0.02
2022-12-11T17:48:56.493Z,0.17
2022-12-11T17:51:26.190Z,0.20
2022-12-11T17:53:55.802Z,0.19
2022-12-11T17:56:24.017Z,0.19
2022-12-11T17:58:51.271Z,0.19
2022-12-11T18:01:18.528Z,0.37
2022-12-11T18:03:45.884Z,0.40
2022-12-11T18:06:15.598Z,0.34
2022-12-11T18:08:44.539Z,0.34
2022-12-11T18:11:17.416Z,0.28
2022-12-11T18:13:45.973Z,0.11
2022-12-11T18:16:17.513Z,0.14
2022-12-11T18:18:46.469Z,0.07
2022-12-11T18:21:20.911Z,0.25
2022-12-11T18:23:49.832Z,0.31
2022-12-11T18:26:18.676Z,0.35
2022-12-11T18:28:46.696Z,0.61
2022-12-11T18:31:14.225Z,0.56
2022-12-11T18:33:43.498Z,0.44
2022-12-11T18:36:12.965Z,0.62
2022-12-11T18:38:42.218Z,0.49
2022-12-11T18:41:17.369Z,0.58
2022-12-11T18:43:44.611Z,0.45
2022-12-11T18:46:14.538Z,0.96
2022-12-11T18:48:43.364Z,1.07
2022-12-11T18:51:13.218Z,0.94
2022-12-11T18:53:40.690Z,0.83
2022-12-11T18:56:16.426Z,0.78
2022-12-11T18:58:45.481Z,0.94
2022-12-11T19:01:17.789Z,1.32
2022-12-11T19:03:45.496Z,1.05
2022-12-11T19:06:18.289Z,1.01
2022-12-11T19:08:45.689Z,0.80
2022-12-11T19:11:21.812Z,0.85
2022-12-11T19:13:50.044Z,0.90
2022-12-11T19:16:20.305Z,0.97
2022-12-11T19:18:47.392Z,0.84
2022-12-11T19:21:15.673Z,1.01
2022-12-11T19:23:43.861Z,0.92
2022-12-11T19:26:17.370Z,0.86
2022-12-11T19:28:45.296Z,0.97
2022-12-11T19:31:15.387Z,0.94
2022-12-11T19:33:43.474Z,1.21
2022-12-11T19:36:13.717Z,1.12
2022-12-11T19:38:42.107Z,0.96
2022-12-11T19:41:29.627Z,1.12
2022-12-11T19:43:58.152Z,1.01
2022-12-11T19:46:26.308Z,1.25
2022-12-11T19:48:55.260Z,1.47
2022-12-11T19:51:25.626Z,1.37
2022-12-11T19:53:53.451Z,1.47
2022-12-11T19:56:20.932Z,1.53
2022-12-11T19:58:48.744Z,1.13
2022-12-11T20:01:28.847Z,1.42
2022-12-11T20:04:02.197Z,1.11
2022-12-11T20:06:31.828Z,1.20
2022-12-11T20:09:00.093Z,1.25
2022-12-11T20:11:27.292Z,1.22
2022-12-11T20:13:57.184Z,1.35
2022-12-11T20:16:53.273Z,1.37
2022-12-11T20:19:11.556Z,1.67
2022-12-11T20:21:38.567Z,1.32
2022-12-11T20:24:06.045Z,1.39
2022-12-11T20:26:36.107Z,1.39
2022-12-11T20:29:07.424Z,1.39
2022-12-11T20:31:37.000Z,1.39
2022-12-11T20:34:05.177Z,1.35
2022-12-11T20:36:33.121Z,1.25
2022-12-11T20:39:00.503Z,1.45
2022-12-11T20:41:28.137Z,1.19
2022-12-11T20:43:55.575Z,1.17
2022-12-11T20:46:27.912Z,1.22
2022-12-11T20:48:58.534Z,1.25
2022-12-11T20:51:26.588Z,1.50
2022-12-11T20:53:59.533Z,1.67
2022-12-11T20:56:30.010Z,1.58
2022-12-11T20:58:58.353Z,1.70
2022-12-11T21:01:28.669Z,1.63
2022-12-11T21:03:56.051Z,1.54
2022-12-11T21:06:32.113Z,1.49
2022-12-11T21:09:00.759Z,1.57
2022-12-11T21:11:28.325Z,1.43
2022-12-11T21:13:55.698Z,1.38
2022-12-11T21:16:23.176Z,1.47
2022-12-11T21:18:50.552Z,1.44
2022-12-11T21:21:17.728Z,1.46
2022-12-11T21:23:45.153Z,1.50
2022-12-11T21:26:12.834Z,1.61
2022-12-11T21:28:40.342Z,1.65
2022-12-11T21:31:11.222Z,1.48
2022-12-11T21:33:38.317Z,1.43
2022-12-11T21:36:06.606Z,1.80
2022-12-11T21:38:33.998Z,1.69
2022-12-11T21:41:13.762Z,2.04
2022-12-11T21:44:00.460Z,1.97
2022-12-11T21:46:29.902Z,1.75
2022-12-11T21:48:56.938Z,1.65
2022-12-11T21:51:32.422Z,1.75
2022-12-11T21:54:03.416Z,1.75
2022-12-11T21:56:31.790Z,1.79
2022-12-11T21:58:59.124Z,2.05
2022-12-11T22:01:33.689Z,2.06
2022-12-11T22:04:01.189Z,1.83
2022-12-11T22:06:28.562Z,1.92
2022-12-11T22:08:55.664Z,2.02
2022-12-11T22:11:26.305Z,2.07
2022-12-11T22:13:53.789Z,1.95
2022-12-11T22:16:21.173Z,2.05
2022-12-11T22:18:48.298Z,1.82
2022-12-11T22:21:15.857Z,1.97
2022-12-11T22:23:43.770Z,2.00
2022-12-11T22:26:16.922Z,2.24
2022-12-11T22:28:43.899Z,2.32
2022-12-11T22:31:12.526Z,2.18
2022-12-11T22:33:40.367Z,2.29
2022-12-11T22:36:07.905Z,2.38
2022-12-11T22:38:35.127Z,2.58
2022-12-11T22:41:09.522Z,2.31
2022-12-11T22:43:36.521Z,2.38
2022-12-11T22:46:03.791Z,2.20
2022-12-11T22:48:31.127Z,2.16
2022-12-11T22:50:58.132Z,2.18
2022-12-11T22:53:25.976Z,2.17
2022-12-11T22:55:53.545Z,2.13
2022-12-11T22:58:22.021Z,2.26
2022-12-11T23:00:49.345Z,2.47
2022-12-11T23:03:16.628Z,2.56
2022-12-11T23:05:43.720Z,2.25
2022-12-11T23:08:10.808Z,2.31
2022-12-11T23:10:40.594Z,2.31
2022-12-11T23:13:07.847Z,2.31
2022-12-11T23:15:34.939Z,2.15
2022-12-11T23:18:01.973Z,2.18
2022-12-11T23:20:29.391Z,2.34
2022-12-11T23:22:56.446Z,2.45
2022-12-11T23:25:23.471Z,2.38
2022-12-11T23:27:50.527Z,2.41
2022-12-11T23:30:17.511Z,2.44
2022-12-11T23:32:44.458Z,2.46
2022-12-11T23:35:11.763Z,2.53
2022-12-11T23:37:39.178Z,2.33
2022-12-11T23:40:07.001Z,2.56
2022-12-11T23:42:34.327Z,2.38
2022-12-11T23:45:01.287Z,2.59
2022-12-11T23:47:28.277Z,2.18
2022-12-11T23:49:55.311Z,2.35
2022-12-11T23:52:23.136Z,2.49
2022-12-11T23:54:51.423Z,2.51
2022-12-11T23:57:18.411Z,2.43
2022-12-11T23:59:45.371Z,2.49
